Terminal Aerodrome Forecast
Issued by NWS Cleveland, OH

Home | Current Version | Previous Version | Graphics & Text | Print | Product List | Glossary On
Versions: 1 2 3 4 5 6 7 8 9 10 11 12 13 14 15 16
822
FTUS41 KCLE 211732
TAFTOL
TAF
KTOL 211732Z 2118/2218 21007KT P6SM FEW040 SCT200
     FM220200 21006KT P6SM BKN200
     FM220700 22009KT P6SM BKN090 WS020/25035KT
     FM221300 22011KT P6SM OVC060
     FM221500 23014KT P6SM -SHRA VCTS OVC040CB=

USA.gov is the U.S. government's official web portal to all federal, state and local government web resources and services.